createdAt,value
2018-09-08T00:01:07.593Z,0
2018-09-08T00:02:16.244Z,0
2018-09-08T00:03:24.876Z,0
2018-09-08T00:04:33.523Z,0
2018-09-08T00:05:42.160Z,0
2018-09-08T00:06:50.810Z,0
2018-09-08T00:07:59.442Z,0
2018-09-08T00:09:08.086Z,0
2018-09-08T00:10:16.726Z,0
2018-09-08T00:11:25.381Z,0
2018-09-08T00:12:34.016Z,0
2018-09-08T00:13:42.660Z,0
2018-09-08T00:14:51.563Z,0
2018-09-08T00:16:00.203Z,0
2018-09-08T00:17:08.855Z,0
2018-09-08T00:18:17.499Z,0
2018-09-08T00:19:26.415Z,0
2018-09-08T00:20:35.051Z,0
2018-09-08T00:21:43.696Z,0
2018-09-08T00:22:52.337Z,0
2018-09-08T00:24:00.982Z,0
2018-09-08T00:25:09.630Z,0
2018-09-08T00:26:18.799Z,0
2018-09-08T00:27:27.441Z,0
2018-09-08T00:28:36.082Z,0
2018-09-08T00:29:44.726Z,0
2018-09-08T00:30:53.365Z,0
2018-09-08T00:32:02.008Z,0
2018-09-08T00:33:10.912Z,0
2018-09-08T00:34:19.554Z,0
2018-09-08T00:35:28.203Z,0
2018-09-08T00:36:36.850Z,0
2018-09-08T00:37:45.492Z,0
2018-09-08T00:38:54.134Z,0
2018-09-08T00:40:03.041Z,0
2018-09-08T00:41:11.682Z,0
2018-09-08T00:42:20.323Z,0
2018-09-08T00:43:28.964Z,0
2018-09-08T00:44:38.141Z,0
2018-09-08T00:45:46.810Z,0
2018-09-08T00:46:55.429Z,0
2018-09-08T00:48:04.068Z,0
2018-09-08T00:49:12.711Z,0
2018-09-08T00:50:21.353Z,0
2018-09-08T00:51:29.996Z,0
2018-09-08T00:52:38.642Z,0
2018-09-08T00:53:47.281Z,0
2018-09-08T00:54:55.922Z,0
2018-09-08T00:56:04.566Z,0
2018-09-08T00:57:13.214Z,0
2018-09-08T00:58:21.852Z,0
2018-09-08T00:59:30.493Z,0
2018-09-08T01:00:39.393Z,0
2018-09-08T01:01:48.040Z,0
2018-09-08T01:02:56.676Z,0
2018-09-08T01:04:05.320Z,0
2018-09-08T01:05:13.963Z,0
2018-09-08T01:06:22.611Z,0
2018-09-08T01:07:31.251Z,0
2018-09-08T01:08:39.894Z,0
2018-09-08T01:09:48.534Z,0
2018-09-08T01:10:57.174Z,0
2018-09-08T01:12:06.086Z,0
2018-09-08T01:13:14.728Z,0
2018-09-08T01:14:23.370Z,0
2018-09-08T01:15:32.014Z,0
2018-09-08T01:16:40.672Z,0
2018-09-08T01:17:49.317Z,0
2018-09-08T01:18:58.234Z,0
2018-09-08T01:20:06.866Z,0
2018-09-08T01:21:15.517Z,0
2018-09-08T01:22:24.419Z,0
2018-09-08T01:23:33.062Z,0
2018-09-08T01:24:41.696Z,0
2018-09-08T01:25:50.600Z,0
2018-09-08T01:26:59.246Z,0
2018-09-08T01:28:08.157Z,0
2018-09-08T01:29:16.805Z,0
2018-09-08T01:30:25.434Z,0
2018-09-08T01:31:34.079Z,0
2018-09-08T01:32:42.980Z,0
2018-09-08T01:33:52.162Z,0
2018-09-08T01:35:01.072Z,0
2018-09-08T01:36:09.716Z,0
2018-09-08T01:37:18.626Z,0
2018-09-08T01:38:27.278Z,0
2018-09-08T01:39:35.915Z,0
2018-09-08T01:40:44.821Z,0
2018-09-08T01:41:53.463Z,0
2018-09-08T01:43:02.110Z,0
2018-09-08T01:44:10.747Z,0
2018-09-08T01:45:19.385Z,0
2018-09-08T01:46:28.025Z,0
2018-09-08T01:47:36.668Z,0
2018-09-08T01:48:45.314Z,0
2018-09-08T01:49:53.955Z,0
2018-09-08T01:51:02.603Z,0
2018-09-08T01:52:11.236Z,0
2018-09-08T01:53:19.889Z,0
2018-09-08T01:54:28.527Z,0
2018-09-08T01:55:37.173Z,0
2018-09-08T01:56:45.809Z,0
2018-09-08T01:57:54.458Z,0
2018-09-08T01:59:03.098Z,0
2018-09-08T02:00:11.742Z,0
2018-09-08T02:01:20.374Z,0
2018-09-08T02:02:29.279Z,0
2018-09-08T02:03:37.926Z,0
2018-09-08T02:04:46.571Z,0
2018-09-08T02:05:55.215Z,0
2018-09-08T02:07:03.853Z,0
2018-09-08T02:08:12.761Z,0
2018-09-08T02:09:21.399Z,0
2018-09-08T02:10:30.053Z,0
2018-09-08T02:11:38.682Z,0
2018-09-08T02:12:47.868Z,0
2018-09-08T02:13:56.506Z,0
2018-09-08T02:15:05.159Z,0
2018-09-08T02:16:13.793Z,0
2018-09-08T02:17:22.438Z,0
2018-09-08T02:18:31.349Z,0
2018-09-08T02:19:40.249Z,0
2018-09-08T02:20:48.884Z,0
2018-09-08T02:21:57.795Z,0
2018-09-08T02:23:06.445Z,0
2018-09-08T02:24:15.093Z,0
2018-09-08T02:25:24.061Z,0
2018-09-08T02:26:32.636Z,0
2018-09-08T02:27:41.272Z,0
2018-09-08T02:28:49.924Z,0
2018-09-08T02:29:58.563Z,0
2018-09-08T02:31:07.226Z,0
2018-09-08T02:32:15.863Z,0
2018-09-08T02:33:24.513Z,0
2018-09-08T02:34:33.410Z,0
2018-09-08T02:35:42.329Z,0
2018-09-08T02:36:50.964Z,0
2018-09-08T02:37:59.613Z,0
2018-09-08T02:39:08.255Z,0
2018-09-08T02:40:16.901Z,0
2018-09-08T02:41:25.542Z,0
2018-09-08T02:42:34.176Z,0
2018-09-08T02:43:42.829Z,0
2018-09-08T02:44:51.467Z,0
2018-09-08T02:46:00.641Z,0
2018-09-08T02:47:09.274Z,0
2018-09-08T02:48:17.929Z,0
2018-09-08T02:49:26.563Z,0
2018-09-08T02:50:35.467Z,0
2018-09-08T02:51:44.097Z,0
2018-09-08T02:52:52.749Z,0
2018-09-08T02:54:01.393Z,0
2018-09-08T02:55:10.294Z,0
2018-09-08T02:56:19.194Z,0
2018-09-08T02:57:27.847Z,0
2018-09-08T02:58:36.756Z,0
2018-09-08T02:59:45.401Z,0
2018-09-08T03:00:54.047Z,0
2018-09-08T03:02:02.679Z,0
2018-09-08T03:03:11.589Z,0
2018-09-08T03:04:20.497Z,0
2018-09-08T03:05:29.146Z,0
2018-09-08T03:06:37.777Z,0
2018-09-08T03:07:46.433Z,0
2018-09-08T03:08:55.336Z,0
2018-09-08T03:10:04.246Z,0
2018-09-08T03:11:12.878Z,0
2018-09-08T03:12:21.523Z,0
2018-09-08T03:13:30.163Z,0
2018-09-08T03:14:38.827Z,0
2018-09-08T03:15:47.461Z,0
2018-09-08T03:16:56.098Z,0
2018-09-08T03:18:04.739Z,0
2018-09-08T03:19:13.382Z,0
2018-09-08T03:20:22.025Z,0
2018-09-08T03:21:30.671Z,0
2018-09-08T03:22:39.312Z,0
2018-09-08T03:23:47.949Z,0
2018-09-08T03:24:56.596Z,0
2018-09-08T03:26:05.501Z,0
2018-09-08T03:27:14.143Z,0
2018-09-08T03:28:23.102Z,0
2018-09-08T03:29:31.748Z,0
2018-09-08T03:30:40.396Z,0
2018-09-08T03:31:49.310Z,0
2018-09-08T03:32:57.949Z,0
2018-09-08T03:34:06.860Z,0
2018-09-08T03:35:15.500Z,0
2018-09-08T03:36:24.403Z,0
2018-09-08T03:37:33.047Z,0
2018-09-08T03:38:41.948Z,0
2018-09-08T03:39:50.600Z,0
2018-09-08T03:40:59.502Z,0
2018-09-08T03:42:08.416Z,0
2018-09-08T03:43:17.053Z,0
2018-09-08T03:44:25.694Z,0
2018-09-08T03:45:34.602Z,0
2018-09-08T03:46:43.249Z,0
2018-09-08T03:47:51.886Z,0
2018-09-08T03:49:00.529Z,0
2018-09-08T03:50:09.437Z,0
2018-09-08T03:51:18.084Z,0
2018-09-08T03:52:26.724Z,0
2018-09-08T03:53:35.364Z,0
2018-09-08T03:54:44.004Z,0
2018-09-08T03:55:52.642Z,0
2018-09-08T03:57:01.289Z,0
2018-09-08T03:58:09.929Z,0
2018-09-08T03:59:18.633Z,0
2018-09-08T04:00:27.465Z,0
2018-09-08T04:01:36.633Z,0
2018-09-08T04:02:45.689Z,0
2018-09-08T04:03:54.817Z,0
2018-09-08T04:05:03.602Z,0
2018-09-08T04:06:12.268Z,0
2018-09-08T04:07:21.435Z,0
2018-09-08T04:08:30.098Z,0
2018-09-08T04:09:39.000Z,0
2018-09-08T04:10:47.909Z,0
2018-09-08T04:11:56.551Z,0
2018-09-08T04:13:05.460Z,0
2018-09-08T04:14:14.102Z,0
2018-09-08T04:15:22.738Z,0
2018-09-08T04:16:31.380Z,0
2018-09-08T04:17:40.016Z,0
2018-09-08T04:18:48.667Z,0
2018-09-08T04:19:57.300Z,0
2018-09-08T04:21:05.948Z,0
2018-09-08T04:22:14.851Z,4
2018-09-08T04:23:23.770Z,0
2018-09-08T04:24:32.404Z,4
2018-09-08T04:25:41.049Z,4
2018-09-08T04:26:49.685Z,4
2018-09-08T04:27:58.335Z,4
2018-09-08T04:29:06.975Z,4
2018-09-08T04:30:15.616Z,4
2018-09-08T04:31:24.518Z,8
2018-09-08T04:32:33.162Z,8
2018-09-08T04:33:41.810Z,12
2018-09-08T04:34:50.711Z,16
2018-09-08T04:35:59.357Z,16
2018-09-08T04:37:07.988Z,20
2018-09-08T04:38:16.638Z,24
2018-09-08T04:39:25.540Z,24
2018-09-08T04:40:34.463Z,28
2018-09-08T04:41:43.359Z,32
2018-09-08T04:42:52.007Z,40
2018-09-08T04:44:00.656Z,44
2018-09-08T04:45:09.289Z,48
2018-09-08T04:46:17.919Z,56
2018-09-08T04:47:26.562Z,64
2018-09-08T04:48:35.486Z,72
2018-09-08T04:49:44.176Z,76
2018-09-08T04:50:52.770Z,88
2018-09-08T04:52:01.402Z,100
2018-09-08T04:53:10.055Z,108
2018-09-08T04:54:18.692Z,120
2018-09-08T04:55:27.342Z,132
2018-09-08T04:56:35.975Z,144
2018-09-08T04:57:44.621Z,160
2018-09-08T04:58:53.521Z,172
2018-09-08T05:00:02.174Z,188
2018-09-08T05:01:11.335Z,204
2018-09-08T05:02:20.018Z,216
2018-09-08T05:03:29.185Z,236
2018-09-08T05:04:37.836Z,244
2018-09-08T05:05:46.476Z,264
2018-09-08T05:06:55.111Z,276
2018-09-08T05:08:03.750Z,296
2018-09-08T05:09:12.547Z,308
2018-09-08T05:10:21.045Z,324
2018-09-08T05:11:29.678Z,344
2018-09-08T05:12:38.323Z,368
2018-09-08T05:13:46.956Z,396
2018-09-08T05:14:55.611Z,424
2018-09-08T05:16:04.514Z,452
2018-09-08T05:17:13.235Z,472
2018-09-08T05:18:21.796Z,492
2018-09-08T05:19:30.441Z,508
2018-09-08T05:20:39.086Z,508
2018-09-08T05:21:47.727Z,512
2018-09-08T05:22:56.359Z,516
2018-09-08T05:24:05.267Z,532
2018-09-08T05:25:13.912Z,540
2018-09-08T05:26:22.831Z,548
2018-09-08T05:27:31.475Z,556
2018-09-08T05:28:40.953Z,552
2018-09-08T05:29:49.446Z,560
2018-09-08T05:30:58.349Z,572
2018-09-08T05:32:06.995Z,588
2018-09-08T05:33:15.633Z,612
2018-09-08T05:34:24.536Z,640
2018-09-08T05:35:33.182Z,668
2018-09-08T05:36:41.831Z,704
2018-09-08T05:37:50.470Z,744
2018-09-08T05:38:59.380Z,776
2018-09-08T05:40:08.056Z,796
2018-09-08T05:41:16.666Z,804
2018-09-08T05:42:25.305Z,832
2018-09-08T05:43:33.945Z,884
2018-09-08T05:44:42.588Z,876
2018-09-08T05:45:51.230Z,896
2018-09-08T05:46:59.884Z,916
2018-09-08T05:48:08.521Z,932
2018-09-08T05:49:17.163Z,944
2018-09-08T05:50:25.801Z,952
2018-09-08T05:51:34.446Z,956
2018-09-08T05:52:43.088Z,952
2018-09-08T05:53:51.730Z,924
2018-09-08T05:55:00.375Z,916
2018-09-08T05:56:09.013Z,968
2018-09-08T05:57:17.653Z,988
2018-09-08T05:58:26.715Z,996
2018-09-08T05:59:35.221Z,1004
2018-09-08T06:00:43.863Z,1020
2018-09-08T06:01:52.507Z,996
2018-09-08T06:03:01.151Z,980
2018-09-08T06:04:09.796Z,1028
2018-09-08T06:05:18.432Z,1048
2018-09-08T06:06:27.072Z,1080
2018-09-08T06:07:35.717Z,1108
2018-09-08T06:08:44.365Z,1136
2018-09-08T06:09:53.005Z,1176
2018-09-08T06:11:01.646Z,1196
2018-09-08T06:12:10.292Z,1208
2018-09-08T06:13:19.455Z,1224
2018-09-08T06:14:28.102Z,1240
2018-09-08T06:15:36.742Z,1248
2018-09-08T06:16:45.649Z,1260
2018-09-08T06:17:54.286Z,1284
2018-09-08T06:19:02.929Z,1292
2018-09-08T06:20:11.835Z,1304
2018-09-08T06:21:20.746Z,1320
2018-09-08T06:22:29.390Z,1332
2018-09-08T06:23:38.289Z,1344
2018-09-08T06:24:46.933Z,1360
2018-09-08T06:25:55.574Z,1368
2018-09-08T06:27:04.494Z,1372
2018-09-08T06:28:13.130Z,1388
2018-09-08T06:29:21.775Z,1396
2018-09-08T06:30:30.412Z,1400
2018-09-08T06:31:39.093Z,1408
2018-09-08T06:32:47.696Z,1424
2018-09-08T06:33:56.833Z,1436
2018-09-08T06:35:05.686Z,1456
2018-09-08T06:36:14.601Z,1464
2018-09-08T06:37:23.241Z,1476
2018-09-08T06:38:31.881Z,1492
2018-09-08T06:39:40.522Z,1500
2018-09-08T06:40:49.162Z,1516
2018-09-08T06:41:57.809Z,1528
2018-09-08T06:43:06.451Z,1536
2018-09-08T06:44:15.097Z,1548
2018-09-08T06:45:23.997Z,1556
2018-09-08T06:46:32.644Z,1564
2018-09-08T06:47:41.551Z,1584
2018-09-08T06:48:50.194Z,1592
2018-09-08T06:49:59.105Z,1604
2018-09-08T06:51:07.751Z,1612
2018-09-08T06:52:16.436Z,1624
2018-09-08T06:53:25.046Z,1652
2018-09-08T06:54:33.684Z,1648
2018-09-08T06:55:42.331Z,1648
2018-09-08T06:56:50.973Z,1652
2018-09-08T06:57:59.728Z,1660
2018-09-08T06:59:09.125Z,1684
2018-09-08T07:00:17.762Z,1724
2018-09-08T07:01:26.406Z,1728
2018-09-08T07:02:35.310Z,1744
2018-09-08T07:03:43.964Z,1760
2018-09-08T07:04:52.601Z,1748
2018-09-08T07:06:01.252Z,1560
2018-09-08T07:07:09.885Z,1492
2018-09-08T07:08:18.791Z,1648
2018-09-08T07:09:27.428Z,1640
2018-09-08T07:10:36.072Z,1640
2018-09-08T07:11:44.709Z,1896
2018-09-08T07:12:53.624Z,2104
2018-09-08T07:14:02.258Z,2152
2018-09-08T07:15:11.189Z,2220
2018-09-08T07:16:20.064Z,2344
2018-09-08T07:17:28.705Z,2512
2018-09-08T07:18:37.358Z,2696
2018-09-08T07:19:45.997Z,2888
2018-09-08T07:20:54.646Z,3092
2018-09-08T07:22:03.283Z,3124
2018-09-08T07:23:11.930Z,3456
2018-09-08T07:24:20.574Z,3208
2018-09-08T07:25:29.219Z,3356
2018-09-08T07:26:38.111Z,3576
2018-09-08T07:27:46.762Z,3512
2018-09-08T07:28:55.411Z,3544
2018-09-08T07:30:04.056Z,3360
2018-09-08T07:31:12.767Z,3292
2018-09-08T07:32:21.343Z,3056
2018-09-08T07:33:30.255Z,3008
2018-09-08T07:34:38.900Z,2724
2018-09-08T07:35:47.547Z,2440
2018-09-08T07:36:56.181Z,2248
2018-09-08T07:38:05.100Z,2192
2018-09-08T07:39:13.735Z,2108
2018-09-08T07:40:22.386Z,2020
2018-09-08T07:41:31.019Z,2092
2018-09-08T07:42:39.667Z,1996
2018-09-08T07:43:48.318Z,1924
2018-09-08T07:44:57.225Z,1852
2018-09-08T07:46:05.915Z,1912
2018-09-08T07:47:14.769Z,1852
2018-09-08T07:48:23.410Z,1996
2018-09-08T07:49:32.063Z,2164
2018-09-08T07:50:40.706Z,2288
2018-09-08T07:51:49.344Z,2736
2018-09-08T07:52:57.982Z,2672
2018-09-08T07:54:06.633Z,2708
2018-09-08T07:55:15.718Z,2716
2018-09-08T07:56:24.383Z,2644
2018-09-08T07:57:33.004Z,2532
2018-09-08T07:58:41.638Z,2412
2018-09-08T07:59:50.291Z,2308
2018-09-08T08:00:58.929Z,2240
2018-09-08T08:02:07.578Z,2244
2018-09-08T08:03:16.212Z,2188
2018-09-08T08:04:24.868Z,2168
2018-09-08T08:05:33.507Z,2160
2018-09-08T08:06:42.216Z,2144
2018-09-08T08:07:50.791Z,2144
2018-09-08T08:08:59.437Z,2172
2018-09-08T08:10:08.085Z,2120
2018-09-08T08:11:16.992Z,2080
2018-09-08T08:12:25.639Z,2020
2018-09-08T08:13:34.279Z,2056
2018-09-08T08:14:43.193Z,2040
2018-09-08T08:15:52.091Z,2024
2018-09-08T08:17:00.739Z,2000
2018-09-08T08:18:09.374Z,1992
2018-09-08T08:19:18.021Z,1988
2018-09-08T08:20:26.661Z,2008
2018-09-08T08:21:35.314Z,2012
2018-09-08T08:22:43.951Z,1992
2018-09-08T08:23:52.598Z,2000
2018-09-08T08:25:01.239Z,2080
2018-09-08T08:26:09.921Z,2144
2018-09-08T08:27:18.534Z,2140
2018-09-08T08:28:27.177Z,2176
2018-09-08T08:29:36.084Z,2216
2018-09-08T08:30:44.726Z,2236
2018-09-08T08:31:53.650Z,2288
2018-09-08T08:33:02.553Z,2332
2018-09-08T08:34:11.205Z,2296
2018-09-08T08:35:20.100Z,2420
2018-09-08T08:36:28.753Z,2368
2018-09-08T08:37:37.394Z,2412
2018-09-08T08:38:46.041Z,2420
2018-09-08T08:39:54.675Z,2508
2018-09-08T08:41:03.329Z,2540
2018-09-08T08:42:11.971Z,2588
2018-09-08T08:43:20.724Z,2612
2018-09-08T08:44:29.252Z,2596
2018-09-08T08:45:37.898Z,2560
2018-09-08T08:46:46.551Z,2536
2018-09-08T08:47:55.191Z,2572
2018-09-08T08:49:04.106Z,2492
2018-09-08T08:50:12.741Z,2532
2018-09-08T08:51:21.393Z,2588
2018-09-08T08:52:30.038Z,2648
2018-09-08T08:53:38.682Z,2652
2018-09-08T08:54:47.318Z,2660
2018-09-08T08:55:56.122Z,2728
2018-09-08T08:57:04.609Z,2720
2018-09-08T08:58:13.264Z,2868
2018-09-08T08:59:21.903Z,2900
2018-09-08T09:00:30.550Z,2984
2018-09-08T09:01:39.456Z,3068
2018-09-08T09:02:48.109Z,3156
2018-09-08T09:03:56.750Z,3204
2018-09-08T09:05:05.391Z,3280
2018-09-08T09:06:14.035Z,3328
2018-09-08T09:07:23.514Z,3388
2018-09-08T09:08:33.570Z,3220
2018-09-08T09:09:43.437Z,3364
2018-09-08T09:10:52.081Z,3368
2018-09-08T09:12:00.721Z,3388
2018-09-08T09:13:09.385Z,3460
2018-09-08T09:14:18.278Z,3536
2018-09-08T09:15:28.131Z,3488
2018-09-08T09:16:38.084Z,3396
2018-09-08T09:17:46.733Z,3384
2018-09-08T09:18:56.579Z,3288
2018-09-08T09:20:06.669Z,3264
2018-09-08T09:21:15.310Z,3200
2018-09-08T09:22:23.957Z,3100
2018-09-08T09:23:32.606Z,3244
2018-09-08T09:24:43.448Z,3324
2018-09-08T09:25:51.654Z,3404
2018-09-08T09:27:00.305Z,3404
2018-09-08T09:28:08.953Z,3412
2018-09-08T09:29:17.598Z,3560
2018-09-08T09:30:26.249Z,3528
2018-09-08T09:31:34.890Z,3532
2018-09-08T09:32:43.533Z,3668
2018-09-08T09:33:52.174Z,3676
2018-09-08T09:35:00.825Z,3852
2018-09-08T09:36:10.007Z,3640
2018-09-08T09:37:18.736Z,4124
2018-09-08T09:38:27.647Z,4220
2018-09-08T09:39:36.303Z,4316
2018-09-08T09:40:44.941Z,4528
2018-09-08T09:41:53.589Z,4264
2018-09-08T09:43:02.230Z,4764
2018-09-08T09:44:10.938Z,4864
2018-09-08T09:45:19.527Z,4864
2018-09-08T09:46:28.171Z,4976
2018-09-08T09:47:36.817Z,5008
2018-09-08T09:48:45.459Z,4768
2018-09-08T09:49:54.108Z,5208
2018-09-08T09:51:02.760Z,5140
2018-09-08T09:52:11.667Z,4840
2018-09-08T09:53:20.311Z,5216
2018-09-08T09:54:28.958Z,5336
2018-09-08T09:55:37.871Z,5336
2018-09-08T09:56:46.517Z,5412
2018-09-08T09:57:55.158Z,5464
2018-09-08T09:59:03.807Z,5516
2018-09-08T10:00:12.453Z,5688
2018-09-08T10:01:21.102Z,5688
2018-09-08T10:02:29.752Z,5704
2018-09-08T10:03:38.392Z,5804
2018-09-08T10:04:47.041Z,5388
2018-09-08T10:05:55.688Z,5368
2018-09-08T10:07:04.340Z,5448
2018-09-08T10:08:12.991Z,5456
2018-09-08T10:09:21.637Z,5612
2018-09-08T10:10:30.282Z,5600
2018-09-08T10:11:38.927Z,5368
2018-09-08T10:12:47.583Z,5336
2018-09-08T10:13:56.220Z,5228
2018-09-08T10:15:04.868Z,5012
2018-09-08T10:16:13.511Z,5004
2018-09-08T10:17:22.165Z,4884
2018-09-08T10:18:30.810Z,4572
2018-09-08T10:19:39.458Z,4672
2018-09-08T10:20:48.105Z,4504
2018-09-08T10:21:56.749Z,4684
2018-09-08T10:23:05.756Z,5012
2018-09-08T10:24:14.385Z,5452
2018-09-08T10:25:23.297Z,5336
2018-09-08T10:26:31.942Z,5592
2018-09-08T10:27:40.588Z,5708
2018-09-08T10:28:49.234Z,5556
2018-09-08T10:29:58.969Z,5648
2018-09-08T10:31:09.014Z,5512
2018-09-08T10:32:19.184Z,5936
2018-09-08T10:33:27.830Z,6004
2018-09-08T10:34:36.473Z,6088
2018-09-08T10:35:45.120Z,6348
2018-09-08T10:36:53.762Z,6252
2018-09-08T10:38:02.408Z,6324
2018-09-08T10:39:11.052Z,6292
2018-09-08T10:40:20.127Z,6528
2018-09-08T10:41:29.093Z,6596
2018-09-08T10:42:38.001Z,6232
2018-09-08T10:43:46.646Z,5976
2018-09-08T10:44:55.298Z,5828
2018-09-08T10:46:04.207Z,5560
2018-09-08T10:47:12.859Z,5340
2018-09-08T10:48:21.505Z,5588
2018-09-08T10:49:30.158Z,5492
2018-09-08T10:50:39.070Z,5248
2018-09-08T10:51:47.720Z,5324
2018-09-08T10:52:56.363Z,5164
2018-09-08T10:54:05.016Z,5148
2018-09-08T10:55:13.661Z,5124
2018-09-08T10:56:22.319Z,5180
2018-09-08T10:57:30.968Z,5400
2018-09-08T10:58:39.613Z,5464
2018-09-08T10:59:48.270Z,5436
2018-09-08T11:00:56.920Z,5376
2018-09-08T11:02:05.934Z,5308
2018-09-08T11:03:14.217Z,5108
2018-09-08T11:04:22.864Z,4788
2018-09-08T11:05:31.518Z,4244
2018-09-08T11:06:40.168Z,3528
2018-09-08T11:07:48.807Z,3000
2018-09-08T11:08:57.462Z,2700
2018-09-08T11:10:06.107Z,2600
2018-09-08T11:11:14.762Z,2616
2018-09-08T11:12:23.408Z,2908
2018-09-08T11:13:32.053Z,3780
2018-09-08T11:14:40.963Z,4536
2018-09-08T11:15:49.686Z,4876
2018-09-08T11:16:58.536Z,4688
2018-09-08T11:18:07.178Z,4468
2018-09-08T11:19:15.831Z,4380
2018-09-08T11:20:24.477Z,4400
2018-09-08T11:21:33.396Z,4480
2018-09-08T11:22:42.040Z,4984
2018-09-08T11:23:50.689Z,5836
2018-09-08T11:24:59.328Z,6272
2018-09-08T11:26:07.987Z,5732
2018-09-08T11:27:16.635Z,5912
2018-09-08T11:28:25.546Z,5232
2018-09-08T11:29:34.449Z,4516
2018-09-08T11:30:43.566Z,3928
2018-09-08T11:31:52.462Z,3268
2018-09-08T11:33:01.112Z,3064
2018-09-08T11:34:09.761Z,3288
2018-09-08T11:35:18.402Z,3748
2018-09-08T11:36:27.052Z,5368
2018-09-08T11:37:35.960Z,5964
2018-09-08T11:38:44.615Z,5588
2018-09-08T11:39:53.253Z,4860
2018-09-08T11:41:01.906Z,4128
2018-09-08T11:42:10.553Z,3800
2018-09-08T11:43:19.208Z,3792
2018-09-08T11:44:27.844Z,3816
2018-09-08T11:45:36.496Z,3812
2018-09-08T11:46:45.417Z,3816
2018-09-08T11:47:54.074Z,3920
2018-09-08T11:49:02.722Z,4188
2018-09-08T11:50:11.367Z,4284
2018-09-08T11:51:20.283Z,4536
2018-09-08T11:52:28.927Z,5140
2018-09-08T11:53:37.582Z,4800
2018-09-08T11:54:46.486Z,5928
2018-09-08T11:55:55.673Z,6084
2018-09-08T11:57:04.309Z,5964
2018-09-08T11:58:12.966Z,5320
2018-09-08T11:59:21.611Z,5948
2018-09-08T12:00:30.262Z,5388
2018-09-08T12:01:38.904Z,4984
2018-09-08T12:02:47.563Z,4796
2018-09-08T12:03:56.471Z,5876
2018-09-08T12:05:05.118Z,5196
2018-09-08T12:06:14.027Z,4600
2018-09-08T12:07:22.936Z,4944
2018-09-08T12:08:31.583Z,5176
2018-09-08T12:09:40.232Z,5020
2018-09-08T12:10:48.962Z,5012
2018-09-08T12:11:57.526Z,4724
2018-09-08T12:13:06.176Z,4324
2018-09-08T12:14:14.825Z,4772
2018-09-08T12:15:23.743Z,4816
2018-09-08T12:16:32.385Z,5100
2018-09-08T12:17:41.032Z,5160
2018-09-08T12:18:49.688Z,5368
2018-09-08T12:19:58.336Z,5172
2018-09-08T12:21:06.981Z,4512
2018-09-08T12:22:15.677Z,3960
2018-09-08T12:23:24.542Z,3608
2018-09-08T12:24:33.193Z,3512
2018-09-08T12:25:41.837Z,3496
2018-09-08T12:26:50.491Z,3696
2018-09-08T12:27:59.135Z,3908
2018-09-08T12:29:07.783Z,4228
2018-09-08T12:30:16.436Z,4644
2018-09-08T12:31:25.084Z,4816
2018-09-08T12:32:34.157Z,4636
2018-09-08T12:33:43.091Z,4852
2018-09-08T12:34:52.010Z,4648
2018-09-08T12:36:00.919Z,4260
2018-09-08T12:37:09.622Z,4184
2018-09-08T12:38:18.212Z,4208
2018-09-08T12:39:26.865Z,4336
2018-09-08T12:40:35.775Z,4216
2018-09-08T12:41:44.685Z,4184
2018-09-08T12:42:53.329Z,3540
2018-09-08T12:44:01.988Z,3920
2018-09-08T12:45:10.637Z,3896
2018-09-08T12:46:19.291Z,3816
2018-09-08T12:47:27.937Z,3760
2018-09-08T12:48:36.580Z,3940
2018-09-08T12:49:45.234Z,3808
2018-09-08T12:50:53.888Z,3512
2018-09-08T12:52:02.802Z,3444
2018-09-08T12:53:11.449Z,3644
2018-09-08T12:54:20.101Z,4012
2018-09-08T12:55:28.750Z,4152
2018-09-08T12:56:37.442Z,3972
2018-09-08T12:57:46.080Z,3952
2018-09-08T12:58:55.479Z,4028
2018-09-08T13:00:04.112Z,4292
2018-09-08T13:01:12.758Z,5864
2018-09-08T13:02:21.672Z,4988
2018-09-08T13:03:30.318Z,4584
2018-09-08T13:04:38.964Z,4100
2018-09-08T13:05:47.871Z,3756
2018-09-08T13:06:56.529Z,3236
2018-09-08T13:08:05.173Z,3312
2018-09-08T13:09:13.829Z,3508
2018-09-08T13:10:22.464Z,3660
2018-09-08T13:11:31.122Z,4140
2018-09-08T13:12:39.766Z,4224
2018-09-08T13:13:48.420Z,4328
2018-09-08T13:14:57.319Z,4264
2018-09-08T13:16:05.973Z,3440
2018-09-08T13:17:14.621Z,3048
2018-09-08T13:18:23.268Z,2976
2018-09-08T13:19:31.910Z,2908
2018-09-08T13:20:40.563Z,2824
2018-09-08T13:21:49.476Z,3820
2018-09-08T13:22:58.386Z,3224
2018-09-08T13:24:07.075Z,2744
2018-09-08T13:25:15.678Z,3736
2018-09-08T13:26:24.340Z,4120
2018-09-08T13:27:32.977Z,4324
2018-09-08T13:28:41.896Z,3672
2018-09-08T13:29:50.540Z,3484
2018-09-08T13:30:59.196Z,3236
2018-09-08T13:32:07.839Z,3308
2018-09-08T13:33:16.774Z,3520
2018-09-08T13:34:25.415Z,4472
2018-09-08T13:35:34.588Z,5000
2018-09-08T13:36:43.235Z,4136
2018-09-08T13:37:51.891Z,4180
2018-09-08T13:39:00.537Z,4296
2018-09-08T13:40:09.180Z,4088
2018-09-08T13:41:17.826Z,3944
2018-09-08T13:42:26.472Z,3884
2018-09-08T13:43:35.395Z,3840
2018-09-08T13:44:44.043Z,3672
2018-09-08T13:45:52.698Z,3792
2018-09-08T13:47:01.419Z,3960
2018-09-08T13:48:09.993Z,4156
2018-09-08T13:49:18.646Z,4196
2018-09-08T13:50:27.293Z,4120
2018-09-08T13:51:35.933Z,4048
2018-09-08T13:52:45.005Z,4048
2018-09-08T13:53:53.857Z,4088
2018-09-08T13:55:02.507Z,4228
2018-09-08T13:56:11.148Z,4436
2018-09-08T13:57:19.796Z,4668
2018-09-08T13:58:28.452Z,5144
2018-09-08T13:59:37.367Z,5364
2018-09-08T14:00:46.020Z,5204
2018-09-08T14:01:54.661Z,4964
2018-09-08T14:03:03.311Z,4692
2018-09-08T14:04:12.007Z,4456
2018-09-08T14:05:20.866Z,4536
2018-09-08T14:06:29.788Z,4500
2018-09-08T14:07:38.435Z,4320
2018-09-08T14:08:47.095Z,4204
2018-09-08T14:09:56.776Z,4124
2018-09-08T14:11:05.696Z,4160
2018-09-08T14:12:14.343Z,4388
2018-09-08T14:13:22.993Z,4056
2018-09-08T14:14:31.634Z,3652
2018-09-08T14:15:40.285Z,3544
2018-09-08T14:16:48.951Z,3400
2018-09-08T14:17:57.871Z,3156
2018-09-08T14:19:06.791Z,2876
2018-09-08T14:20:15.427Z,2660
2018-09-08T14:21:24.081Z,2520
2018-09-08T14:22:32.726Z,2544
2018-09-08T14:23:41.381Z,2660
2018-09-08T14:24:50.022Z,2980
2018-09-08T14:25:58.946Z,3280
2018-09-08T14:27:07.591Z,3472
2018-09-08T14:28:16.250Z,3588
2018-09-08T14:29:24.897Z,3556
2018-09-08T14:30:33.809Z,3424
2018-09-08T14:31:42.457Z,3208
2018-09-08T14:32:51.114Z,3120
2018-09-08T14:33:59.766Z,3144
2018-09-08T14:35:08.410Z,3280
2018-09-08T14:36:17.055Z,3404
2018-09-08T14:37:25.701Z,3520
2018-09-08T14:38:34.640Z,3588
2018-09-08T14:39:43.278Z,3604
2018-09-08T14:40:51.930Z,3564
2018-09-08T14:42:00.569Z,3488
2018-09-08T14:43:09.225Z,3540
2018-09-08T14:44:17.869Z,3632
2018-09-08T14:45:26.521Z,3696
2018-09-08T14:46:35.160Z,3696
2018-09-08T14:47:43.919Z,3696
2018-09-08T14:48:52.457Z,3572
2018-09-08T14:50:01.110Z,3380
2018-09-08T14:51:09.750Z,3188
2018-09-08T14:52:18.663Z,2972
2018-09-08T14:53:27.315Z,2780
2018-09-08T14:54:35.967Z,2656
2018-09-08T14:55:44.885Z,2588
2018-09-08T14:56:53.985Z,2540
2018-09-08T14:58:02.553Z,2436
2018-09-08T14:59:11.198Z,2272
2018-09-08T15:00:19.855Z,2348
2018-09-08T15:01:29.023Z,2508
2018-09-08T15:02:37.672Z,2564
2018-09-08T15:03:46.586Z,2496
2018-09-08T15:04:55.607Z,2388
2018-09-08T15:06:04.213Z,2312
2018-09-08T15:07:12.869Z,2224
2018-09-08T15:08:21.504Z,2168
2018-09-08T15:09:30.157Z,2140
2018-09-08T15:10:38.803Z,2104
2018-09-08T15:11:47.453Z,2052
2018-09-08T15:12:56.364Z,1988
2018-09-08T15:14:05.278Z,1908
2018-09-08T15:15:13.939Z,1788
2018-09-08T15:16:22.575Z,1716
2018-09-08T15:17:31.223Z,1712
2018-09-08T15:18:39.866Z,1720
2018-09-08T15:19:48.519Z,1692
2018-09-08T15:20:57.172Z,1576
2018-09-08T15:22:06.085Z,1436
2018-09-08T15:23:14.998Z,1276
2018-09-08T15:24:23.968Z,1160
2018-09-08T15:25:32.580Z,1072
2018-09-08T15:26:41.242Z,1028
2018-09-08T15:27:49.889Z,1040
2018-09-08T15:28:58.536Z,1112
2018-09-08T15:30:07.721Z,1208
2018-09-08T15:31:16.642Z,1320
2018-09-08T15:32:25.296Z,1360
2018-09-08T15:33:33.937Z,1332
2018-09-08T15:34:42.588Z,1224
2018-09-08T15:35:51.496Z,1116
2018-09-08T15:37:00.147Z,976
2018-09-08T15:38:09.049Z,892
2018-09-08T15:39:17.696Z,864
2018-09-08T15:40:26.345Z,860
2018-09-08T15:41:34.995Z,880
2018-09-08T15:42:43.640Z,896
2018-09-08T15:43:52.288Z,872
2018-09-08T15:45:00.934Z,852
2018-09-08T15:46:09.585Z,892